Time;durP1;ratioP1;P1;durP2;ratioP2;P2;SDS_P1;SDS_P2;PMS_P1;PMS_P2;Temp;Humidity;BMP_temperature;BMP_pressure;BME280_temperature;BME280_humidity;BME280_pressure;Samples;Min_cycle;Max_cycle;Signal;HPM_P1;HPM_P2
2021/11/28 00:00:47;;;;;;;8.13;3.30;;;5.30;99.90;;;;;;5061174;28;20037;-76
2021/11/28 00:03:14;;;;;;;9.35;5.15;;;5.40;99.90;;;;;;5075778;28;20032;-76
2021/11/28 00:05:41;;;;;;;7.97;3.97;;;5.40;99.90;;;;;;5071906;28;20021;-76
2021/11/28 00:13:11;;;;;;;4.53;2.40;;;5.30;99.90;;;;;;5080320;28;20044;-75
2021/11/28 00:15:38;;;;;;;4.28;2.40;;;5.30;99.90;;;;;;5069488;28;20044;-76
2021/11/28 00:18:05;;;;;;;4.72;2.42;;;5.20;99.90;;;;;;5072135;28;20059;-76
2021/11/28 00:20:31;;;;;;;4.18;1.73;;;5.20;99.90;;;;;;5077323;28;20036;-76
2021/11/28 00:22:57;;;;;;;7.68;2.80;;;5.10;99.90;;;;;;5075572;28;20031;-76
2021/11/28 00:25:23;;;;;;;2.25;1.17;;;5.20;99.90;;;;;;5089827;28;20603;-76
2021/11/28 00:27:50;;;;;;;2.25;1.23;;;5.20;99.90;;;;;;5072472;28;20025;-76
2021/11/28 00:30:23;;;;;;;2.38;0.93;;;5.20;99.90;;;;;;5060295;28;20020;-76
2021/11/28 00:32:49;;;;;;;2.92;0.60;;;5.10;99.90;;;;;;5085581;28;20089;-76
2021/11/28 00:35:15;;;;;;;1.08;0.20;;;5.10;99.90;;;;;;5092681;28;20501;-75
2021/11/28 00:37:41;;;;;;;0.85;0.35;;;5.00;99.90;;;;;;5081053;28;20028;-74
2021/11/28 00:40:07;;;;;;;0.57;0.22;;;5.10;99.90;;;;;;5072549;28;20855;-75
2021/11/28 00:42:33;;;;;;;1.95;0.60;;;5.10;99.90;;;;;;5083275;28;20115;-76
2021/11/28 00:44:59;;;;;;;3.00;0.50;;;5.10;99.90;;;;;;5091407;28;20111;-75
2021/11/28 00:47:24;;;;;;;1.75;0.63;;;5.20;99.90;;;;;;5067093;28;20086;-75
2021/11/28 00:50:07;;;;;;;1.20;0.68;;;5.20;99.90;;;;;;5056012;28;20029;-75
2021/11/28 00:52:33;;;;;;;1.45;0.65;;;5.20;99.90;;;;;;5073942;28;20029;-75
2021/11/28 00:55:00;;;;;;;2.50;0.50;;;5.00;99.90;;;;;;5087801;28;20031;-75
2021/11/28 00:57:27;;;;;;;1.63;0.65;;;4.90;99.90;;;;;;5083260;28;20035;-76
2021/11/28 00:59:54;;;;;;;0.30;0.20;;;5.00;99.90;;;;;;5085077;28;20032;-76
2021/11/28 01:02:21;;;;;;;2.63;0.63;;;5.00;99.90;;;;;;5079653;28;20154;-75
2021/11/28 01:04:47;;;;;;;1.40;0.43;;;5.00;99.90;;;;;;5073288;28;20056;-76
2021/11/28 01:07:13;;;;;;;0.32;0.20;;;5.00;99.90;;;;;;5093058;28;20028;-76
2021/11/28 01:09:39;;;;;;;1.33;0.30;;;4.90;99.90;;;;;;5085338;28;20028;-75
2021/11/28 01:12:07;;;;;;;1.30;0.32;;;4.90;99.90;;;;;;5071588;28;20048;-75
2021/11/28 01:14:33;;;;;;;0.25;0.10;;;4.90;99.90;;;;;;5077931;28;20055;-75
2021/11/28 01:16:59;;;;;;;2.08;0.38;;;4.90;99.90;;;;;;5078625;28;20050;-76
2021/11/28 01:19:25;;;;;;;0.08;0.08;;;4.90;99.90;;;;;;5073509;28;20024;-76
2021/11/28 01:21:54;;;;;;;0.82;0.30;;;4.80;99.90;;;;;;5071569;28;20688;-75
2021/11/28 01:24:20;;;;;;;1.00;0.28;;;4.80;99.90;;;;;;5067754;28;20029;-75
2021/11/28 01:26:45;;;;;;;1.65;0.22;;;4.80;99.90;;;;;;5069922;28;20115;-75
2021/11/28 01:29:12;;;;;;;0.57;0.20;;;4.70;99.90;;;;;;5091320;28;20032;-75
2021/11/28 01:31:38;;;;;;;0.35;0.20;;;4.70;99.90;;;;;;5093402;28;20564;-76
2021/11/28 01:34:04;;;;;;;0.75;0.25;;;4.60;99.90;;;;;;5066120;28;20378;-75
2021/11/28 01:36:29;;;;;;;0.45;0.10;;;4.60;99.90;;;;;;5075113;28;20036;-75
2021/11/28 01:38:55;;;;;;;0.90;0.20;;;4.70;99.90;;;;;;5082101;28;20028;-76
2021/11/28 01:41:21;;;;;;;0.15;0.10;;;4.70;99.90;;;;;;5087628;28;20550;-76
2021/11/28 01:43:50;;;;;;;1.35;0.50;;;4.90;99.90;;;;;;5079026;28;20493;-76
2021/11/28 01:46:21;;;;;;;1.65;0.85;;;4.80;99.90;;;;;;5079490;28;20042;-75
2021/11/28 01:48:47;;;;;;;2.22;1.30;;;4.70;99.90;;;;;;5072635;28;20025;-75
2021/11/28 01:51:13;;;;;;;3.20;1.35;;;4.70;99.90;;;;;;5072036;28;20036;-75
2021/11/28 01:53:39;;;;;;;3.78;1.90;;;4.80;99.90;;;;;;5071730;28;20636;-76
2021/11/28 01:56:05;;;;;;;1.73;0.82;;;4.90;99.90;;;;;;5079406;28;20109;-76
2021/11/28 01:58:31;;;;;;;1.63;1.25;;;4.90;99.90;;;;;;5073765;28;20047;-75
2021/11/28 02:00:59;;;;;;;2.90;0.63;;;4.80;99.90;;;;;;5092113;28;20549;-75
2021/11/28 02:03:26;;;;;;;1.30;0.35;;;4.70;99.90;;;;;;5074128;28;20055;-75
2021/11/28 02:05:56;;;;;;;0.70;0.40;;;4.80;99.90;;;;;;5092043;28;20078;-75
2021/11/28 02:08:22;;;;;;;0.75;0.40;;;4.80;99.90;;;;;;5075573;28;20036;-75
2021/11/28 02:10:48;;;;;;;0.75;0.43;;;4.70;99.90;;;;;;5054259;28;20029;-75
2021/11/28 02:13:19;;;;;;;1.40;0.50;;;4.70;99.90;;;;;;5070501;28;20070;-75
2021/11/28 02:15:46;;;;;;;1.45;0.60;;;4.70;99.90;;;;;;5092061;28;20043;-75
2021/11/28 02:18:12;;;;;;;1.92;0.70;;;4.90;99.90;;;;;;5080511;28;20020;-75
2021/11/28 02:20:44;;;;;;;1.65;0.85;;;4.90;99.90;;;;;;5073911;28;20127;-75
2021/11/28 02:23:11;;;;;;;2.72;0.90;;;4.90;99.90;;;;;;5073405;28;20082;-75
2021/11/28 02:25:36;;;;;;;2.33;1.20;;;4.90;99.90;;;;;;5089294;28;20452;-75
2021/11/28 02:28:02;;;;;;;1.83;0.98;;;4.80;99.90;;;;;;5087019;28;20116;-75
2021/11/28 02:30:28;;;;;;;2.30;0.93;;;4.70;99.90;;;;;;5071455;28;20552;-74
2021/11/28 02:32:57;;;;;;;2.10;0.88;;;4.70;99.90;;;;;;5072430;28;20028;-75
2021/11/28 02:35:23;;;;;;;5.88;2.55;;;4.80;99.90;;;;;;5091653;28;20028;-75
2021/11/28 02:37:49;;;;;;;277.92;25.25;;;4.90;99.90;;;;;;5088761;28;20394;-76
2021/11/28 02:40:18;;;;;;;65.93;7.55;;;4.90;99.90;;;;;;5075876;28;20032;-75
2021/11/28 02:42:45;;;;;;;162.80;14.68;;;4.70;99.90;;;;;;5071703;28;20028;-75
2021/11/28 02:45:13;;;;;;;3.35;1.70;;;4.60;99.90;;;;;;5091394;28;20031;-76
2021/11/28 02:47:39;;;;;;;5.18;2.00;;;4.60;99.90;;;;;;5086799;28;20398;-75
2021/11/28 02:50:06;;;;;;;3.30;1.90;;;4.50;99.90;;;;;;5071585;28;20028;-75
2021/11/28 02:52:32;;;;;;;4.93;1.73;;;4.60;99.90;;;;;;5076563;28;20152;-75
2021/11/28 02:54:59;;;;;;;3.67;1.55;;;4.50;99.90;;;;;;5093122;28;20106;-75
2021/11/28 02:57:25;;;;;;;4.38;2.30;;;4.60;99.90;;;;;;5090110;28;20153;-75
2021/11/28 02:59:51;;;;;;;3.45;1.70;;;4.60;99.90;;;;;;5087065;28;20024;-75
2021/11/28 03:02:17;;;;;;;9.07;2.50;;;4.40;99.90;;;;;;5074496;28;20390;-75
2021/11/28 03:04:42;;;;;;;3.83;1.90;;;4.50;99.90;;;;;;5092893;28;20352;-75
2021/11/28 03:07:08;;;;;;;3.22;1.88;;;4.50;99.90;;;;;;5084334;28;20033;-75
2021/11/28 03:09:34;;;;;;;3.80;2.20;;;4.50;99.90;;;;;;5081057;28;20028;-74
2021/11/28 03:12:00;;;;;;;3.75;2.03;;;4.50;99.90;;;;;;5085695;28;20055;-75
2021/11/28 03:14:26;;;;;;;3.60;1.98;;;4.50;99.90;;;;;;5091541;28;20477;-75
2021/11/28 03:16:52;;;;;;;3.33;1.55;;;4.60;99.90;;;;;;5091193;28;20020;-75
2021/11/28 03:19:18;;;;;;;3.00;1.55;;;4.60;99.90;;;;;;5088112;28;20499;-75
2021/11/28 03:21:44;;;;;;;3.90;2.00;;;4.50;99.90;;;;;;5073104;28;20026;-75
2021/11/28 03:24:10;;;;;;;4.43;2.45;;;4.70;99.90;;;;;;5091404;28;20054;-75
2021/11/28 03:26:40;;;;;;;3.95;2.47;;;4.70;99.90;;;;;;5089691;28;20501;-75
2021/11/28 03:29:12;;;;;;;3.88;2.17;;;4.80;99.90;;;;;;5091726;28;20351;-75
2021/11/28 03:31:43;;;;;;;138.35;14.23;;;4.80;99.90;;;;;;5065930;28;20027;-75
2021/11/28 03:34:11;;;;;;;363.15;39.58;;;4.80;99.90;;;;;;5069793;28;20418;-75
2021/11/28 03:36:43;;;;;;;5.22;3.05;;;4.60;99.90;;;;;;5079209;28;20363;-75
2021/11/28 03:39:12;;;;;;;299.48;33.70;;;4.60;99.90;;;;;;5075642;28;20028;-75
2021/11/28 03:41:38;;;;;;;102.78;12.30;;;4.50;99.90;;;;;;5080341;28;20036;-75
2021/11/28 03:44:05;;;;;;;50.83;6.72;;;4.50;99.90;;;;;;5070460;28;20095;-75
2021/11/28 03:46:31;;;;;;;4.57;2.30;;;4.40;99.90;;;;;;5084377;28;20459;-75
2021/11/28 03:48:58;;;;;;;3.63;2.00;;;4.30;99.90;;;;;;5089999;28;20111;-76
2021/11/28 03:51:25;;;;;;;1.88;1.10;;;4.30;99.90;;;;;;5064168;28;20491;-75
2021/11/28 03:53:51;;;;;;;2.50;1.35;;;4.40;99.90;;;;;;5069764;28;20051;-76
2021/11/28 03:56:17;;;;;;;3.08;1.67;;;4.40;99.90;;;;;;5069181;28;20021;-75
2021/11/28 03:58:43;;;;;;;3.60;2.08;;;4.50;99.90;;;;;;5076881;28;20032;-75
2021/11/28 04:01:11;;;;;;;5.45;1.80;;;4.50;99.90;;;;;;5080214;28;20032;-74
2021/11/28 04:03:38;;;;;;;4.63;1.80;;;4.50;99.90;;;;;;5061361;28;20478;-74
2021/11/28 04:06:06;;;;;;;2.78;1.70;;;4.50;99.90;;;;;;5083081;28;20028;-74
2021/11/28 04:08:32;;;;;;;526.47;57.97;;;4.40;99.90;;;;;;5074310;28;20027;-74
2021/11/28 04:10:59;;;;;;;276.95;28.60;;;4.30;99.90;;;;;;5065694;28;20016;-73
2021/11/28 04:13:25;;;;;;;331.38;35.47;;;4.10;99.90;;;;;;5035982;28;1230214;-74
2021/11/28 04:15:51;;;;;;;163.88;18.33;;;4.10;99.90;;;;;;5082515;28;20024;-74
2021/11/28 04:18:18;;;;;;;105.55;13.32;;;4.00;99.90;;;;;;5080711;28;20460;-73
2021/11/28 04:20:44;;;;;;;94.32;11.27;;;3.90;99.90;;;;;;5082584;28;20020;-73
2021/11/28 04:23:10;;;;;;;97.60;11.50;;;4.00;99.90;;;;;;5070622;28;20509;-74
2021/11/28 04:25:37;;;;;;;6.03;3.40;;;4.00;99.90;;;;;;5065718;28;20031;-74
2021/11/28 04:28:03;;;;;;;5.57;3.33;;;4.10;99.90;;;;;;5070809;28;20038;-73
2021/11/28 04:30:29;;;;;;;37.95;7.45;;;4.20;99.90;;;;;;5087189;28;20468;-74
2021/11/28 04:32:55;;;;;;;47.42;9.13;;;4.40;99.90;;;;;;5075851;28;20115;-73
2021/11/28 04:35:22;;;;;;;101.50;13.38;;;4.40;99.90;;;;;;5070217;28;20052;-74
2021/11/28 04:37:48;;;;;;;250.55;26.55;;;4.30;99.90;;;;;;5079782;28;20490;-74
2021/11/28 04:40:15;;;;;;;19.88;5.95;;;4.20;99.90;;;;;;5065658;28;20587;-74
2021/11/28 04:42:41;;;;;;;69.32;9.43;;;4.30;99.90;;;;;;5074660;28;20351;-74
2021/11/28 04:45:09;;;;;;;8.20;3.05;;;4.30;99.90;;;;;;5066405;28;20028;-74
2021/11/28 04:47:35;;;;;;;3.28;1.90;;;3.90;99.90;;;;;;5067940;28;20628;-74
2021/11/28 04:50:02;;;;;;;3.08;1.73;;;4.10;99.90;;;;;;5085083;28;20024;-74
2021/11/28 04:52:28;;;;;;;3.90;2.15;;;3.90;99.90;;;;;;5086011;28;20040;-74
2021/11/28 04:54:54;;;;;;;3.20;1.65;;;3.90;99.90;;;;;;5079138;28;20415;-74
2021/11/28 04:57:19;;;;;;;3.58;1.92;;;3.90;99.90;;;;;;5066369;28;20024;-74
2021/11/28 04:59:47;;;;;;;3.65;1.90;;;3.80;99.90;;;;;;5082315;28;20020;-74
2021/11/28 05:02:13;;;;;;;3.70;1.83;;;3.90;99.90;;;;;;5082999;28;20028;-74
2021/11/28 05:04:39;;;;;;;2.80;1.60;;;3.80;99.90;;;;;;5078815;28;20474;-74
2021/11/28 05:07:04;;;;;;;3.20;1.65;;;3.60;99.90;;;;;;5063630;28;20039;-74
2021/11/28 05:09:30;;;;;;;3.03;1.88;;;3.50;99.90;;;;;;5064232;28;20024;-74
2021/11/28 05:11:56;;;;;;;2.88;1.45;;;3.30;99.90;;;;;;5062000;28;20052;-75
2021/11/28 05:14:22;;;;;;;2.28;1.33;;;3.20;99.90;;;;;;5068894;28;20066;-74
2021/11/28 05:16:47;;;;;;;1.60;1.00;;;3.10;99.90;;;;;;5066720;28;20024;-74
2021/11/28 05:19:13;;;;;;;3.72;1.20;;;3.10;99.90;;;;;;5077439;28;20033;-74
2021/11/28 05:21:39;;;;;;;2.63;1.60;;;3.00;99.90;;;;;;5047177;28;20021;-74
2021/11/28 05:24:05;;;;;;;1.38;0.73;;;3.10;99.90;;;;;;5066630;28;20467;-75
2021/11/28 05:26:31;;;;;;;1.02;0.50;;;3.00;99.90;;;;;;5066233;28;20612;-74
2021/11/28 05:28:57;;;;;;;0.82;0.47;;;3.00;99.90;;;;;;5066636;28;20016;-74
2021/11/28 05:31:23;;;;;;;0.45;0.20;;;3.10;99.90;;;;;;5066952;28;20444;-74
2021/11/28 05:33:49;;;;;;;0.95;0.50;;;3.20;99.90;;;;;;5073194;28;20047;-74
2021/11/28 05:36:17;;;;;;;95.07;50.15;;;3.20;99.90;;;;;;5066179;28;20082;-74
2021/11/28 05:38:44;;;;;;;142.90;76.93;;;3.10;99.90;;;;;;5066609;28;21041;-74
2021/11/28 05:41:10;;;;;;;54.85;33.35;;;3.30;99.90;;;;;;5067342;28;20593;-74
2021/11/28 05:43:38;;;;;;;5.57;3.20;;;3.40;99.90;;;;;;5067311;28;20087;-74
2021/11/28 05:46:05;;;;;;;1.10;0.63;;;3.00;99.90;;;;;;5085751;28;20028;-74
2021/11/28 05:48:31;;;;;;;3.30;1.15;;;2.80;99.90;;;;;;5065433;28;20025;-75
2021/11/28 05:50:58;;;;;;;29.90;26.70;;;2.80;99.90;;;;;;5046720;28;20760;-74
2021/11/28 05:53:24;;;;;;;8.20;5.75;;;2.90;99.90;;;;;;5066159;28;20036;-74
2021/11/28 05:55:50;;;;;;;13.55;12.25;;;2.80;99.90;;;;;;5070103;28;20883;-74
2021/11/28 05:58:16;;;;;;;7.63;5.95;;;2.80;99.90;;;;;;5078410;28;20055;-74
2021/11/28 06:00:42;;;;;;;2.55;1.40;;;2.80;99.90;;;;;;5066306;28;20029;-74
2021/11/28 06:03:08;;;;;;;2.65;1.73;;;2.80;99.90;;;;;;5081401;28;20028;-74
2021/11/28 06:05:33;;;;;;;1.80;0.90;;;2.80;99.90;;;;;;5074687;28;20020;-74
2021/11/28 06:07:59;;;;;;;15.13;10.70;;;2.80;99.90;;;;;;5079264;28;20127;-73
2021/11/28 06:10:25;;;;;;;2.80;1.83;;;2.70;99.90;;;;;;5045947;28;20124;-74
2021/11/28 06:12:51;;;;;;;87.63;43.28;;;2.60;99.90;;;;;;5057848;28;20104;-74
2021/11/28 06:15:17;;;;;;;9.57;5.10;;;2.50;99.90;;;;;;5070499;28;20451;-75
2021/11/28 06:17:43;;;;;;;1.02;0.60;;;2.30;99.90;;;;;;5065940;28;20028;-74
2021/11/28 06:20:09;;;;;;;0.93;0.60;;;2.10;99.90;;;;;;5065391;28;20032;-75
2021/11/28 06:22:35;;;;;;;1.08;0.45;;;2.30;99.90;;;;;;5084450;28;20659;-74
2021/11/28 06:25:02;;;;;;;1.60;0.80;;;2.30;99.90;;;;;;5082867;28;20028;-75
2021/11/28 06:27:28;;;;;;;0.65;0.40;;;2.30;99.90;;;;;;5084160;28;20054;-74
2021/11/28 06:29:54;;;;;;;1.13;0.60;;;2.40;99.90;;;;;;5073265;28;20064;-74
2021/11/28 06:32:20;;;;;;;0.28;0.28;;;2.40;99.90;;;;;;5069066;28;20380;-74
2021/11/28 06:34:45;;;;;;;0.43;0.20;;;2.40;99.90;;;;;;5083444;28;20024;-74
2021/11/28 06:37:11;;;;;;;0.35;0.10;;;2.30;99.90;;;;;;5068793;28;20056;-74
2021/11/28 06:39:37;;;;;;;0.82;0.45;;;2.40;99.90;;;;;;5069279;28;20547;-75
2021/11/28 06:42:04;;;;;;;0.10;0.05;;;2.50;99.90;;;;;;5065620;28;20024;-75
2021/11/28 06:44:29;;;;;;;0.28;0.20;;;2.50;99.90;;;;;;5072148;28;20032;-75
2021/11/28 06:46:55;;;;;;;0.30;0.22;;;2.50;99.90;;;;;;5073588;28;20028;-74
2021/11/28 06:49:24;;;;;;;0.10;0.10;;;2.50;99.90;;;;;;5069343;28;20023;-74
2021/11/28 06:51:50;;;;;;;0.57;0.28;;;2.60;99.90;;;;;;5065158;28;20032;-74
2021/11/28 06:54:15;;;;;;;0.52;0.25;;;2.60;99.90;;;;;;5069761;28;20086;-74
2021/11/28 06:56:41;;;;;;;0.65;0.10;;;2.60;99.90;;;;;;5078371;28;20514;-75
2021/11/28 06:59:07;;;;;;;1.05;0.20;;;2.70;99.90;;;;;;5067123;28;20035;-74
2021/11/28 07:01:33;;;;;;;0.20;0.20;;;2.60;99.90;;;;;;5067656;28;20188;-74
2021/11/28 07:03:58;;;;;;;0.60;0.30;;;2.60;99.90;;;;;;5050412;28;20033;-75
2021/11/28 07:06:24;;;;;;;0.80;0.50;;;2.60;99.90;;;;;;5082470;28;20020;-74
2021/11/28 07:08:50;;;;;;;0.25;0.20;;;2.60;99.90;;;;;;5065438;28;20029;-74
2021/11/28 07:11:15;;;;;;;0.20;0.20;;;2.70;99.90;;;;;;5076074;28;20498;-74
2021/11/28 07:13:41;;;;;;;0.10;0.10;;;2.80;99.90;;;;;;5065011;28;20068;-74
2021/11/28 07:16:07;;;;;;;0.35;0.22;;;2.70;99.90;;;;;;5066104;28;20371;-75
2021/11/28 07:18:32;;;;;;;0.82;0.45;;;2.80;99.90;;;;;;5080050;28;20028;-74
2021/11/28 07:20:58;;;;;;;0.63;0.45;;;2.80;99.90;;;;;;5068939;28;20037;-74
2021/11/28 07:23:24;;;;;;;0.65;0.40;;;2.80;99.90;;;;;;5064533;28;20025;-74
2021/11/28 07:25:50;;;;;;;1.15;0.43;;;2.80;99.90;;;;;;5077915;28;20028;-74
2021/11/28 07:28:16;;;;;;;8.43;0.52;;;2.90;99.90;;;;;;5073320;28;20036;-74
2021/11/28 07:30:42;;;;;;;1.40;0.43;;;2.90;99.90;;;;;;5076155;28;20486;-74
2021/11/28 07:33:08;;;;;;;0.25;0.20;;;3.00;99.90;;;;;;5067189;28;20047;-75
2021/11/28 07:35:34;;;;;;;0.68;0.38;;;3.00;99.90;;;;;;5066853;28;20021;-74
2021/11/28 07:38:00;;;;;;;0.20;0.20;;;3.00;99.90;;;;;;5057585;28;20606;-74
2021/11/28 07:40:26;;;;;;;0.73;0.40;;;3.00;99.90;;;;;;5058186;28;20031;-74
2021/11/28 07:42:52;;;;;;;0.80;0.20;;;3.00;99.90;;;;;;5071946;28;20020;-74
2021/11/28 07:45:17;;;;;;;0.73;0.30;;;2.90;99.90;;;;;;5079014;28;20115;-74
2021/11/28 07:47:43;;;;;;;0.77;0.20;;;3.00;99.90;;;;;;5084329;28;20169;-74
2021/11/28 07:50:10;;;;;;;0.65;0.20;;;3.10;99.90;;;;;;5067936;28;20036;-73
2021/11/28 07:52:36;;;;;;;0.13;0.08;;;3.10;99.90;;;;;;5077749;28;20037;-74
2021/11/28 07:55:03;;;;;;;0.82;0.28;;;3.10;99.90;;;;;;5067026;28;20098;-74
2021/11/28 07:57:29;;;;;;;1.15;0.40;;;3.10;99.90;;;;;;5087241;28;20053;-76
2021/11/28 07:59:55;;;;;;;0.13;0.10;;;3.00;99.90;;;;;;5070811;28;20046;-75
2021/11/28 08:02:20;;;;;;;0.52;0.22;;;3.10;99.90;;;;;;5080048;28;20497;-73
2021/11/28 08:04:48;;;;;;;1.42;0.65;;;3.10;99.90;;;;;;5069390;28;20597;-74
2021/11/28 08:07:14;;;;;;;5.93;2.38;;;3.30;99.90;;;;;;5066496;28;20031;-74
2021/11/28 08:09:40;;;;;;;0.55;0.30;;;3.20;99.90;;;;;;5075723;28;20031;-73
2021/11/28 08:12:06;;;;;;;0.73;0.40;;;3.20;99.90;;;;;;5082474;28;20078;-73
2021/11/28 08:14:35;;;;;;;0.70;0.25;;;3.30;99.90;;;;;;5066262;28;20086;-74
2021/11/28 08:17:02;;;;;;;0.45;0.28;;;3.20;99.90;;;;;;5063229;28;20056;-74
2021/11/28 08:19:30;;;;;;;0.90;0.20;;;3.30;99.90;;;;;;5070561;28;20028;-74
2021/11/28 08:21:58;;;;;;;4.60;0.52;;;3.40;99.90;;;;;;5084328;28;20023;-73
2021/11/28 08:24:24;;;;;;;1.63;0.88;;;3.40;99.90;;;;;;5070271;28;20028;-73
2021/11/28 08:26:50;;;;;;;1.02;0.50;;;3.40;99.90;;;;;;5063187;28;20037;-73
2021/11/28 08:29:16;;;;;;;0.40;0.20;;;3.40;99.90;;;;;;5066137;28;20104;-74
2021/11/28 08:31:42;;;;;;;0.77;0.40;;;3.40;99.90;;;;;;5083792;28;20028;-74
2021/11/28 08:34:08;;;;;;;1.05;0.30;;;3.40;99.90;;;;;;5076661;28;20048;-73
2021/11/28 08:36:34;;;;;;;0.57;0.57;;;3.50;99.90;;;;;;5063454;28;20024;-74
2021/11/28 08:38:59;;;;;;;0.20;0.20;;;3.60;99.90;;;;;;5063846;28;20028;-74
2021/11/28 08:41:27;;;;;;;0.10;0.10;;;3.60;99.90;;;;;;5080804;28;20031;-73
2021/11/28 08:43:54;;;;;;;0.73;0.28;;;3.70;99.90;;;;;;5081661;28;20065;-73
2021/11/28 08:46:20;;;;;;;0.65;0.35;;;3.70;99.90;;;;;;5063523;28;20032;-73
2021/11/28 08:48:48;;;;;;;2.20;0.98;;;3.60;99.90;;;;;;5066916;28;20052;-74
2021/11/28 08:51:14;;;;;;;1.50;0.50;;;3.70;99.90;;;;;;5081886;28;20466;-74
2021/11/28 08:53:41;;;;;;;1.15;0.40;;;3.80;99.90;;;;;;5088687;28;20131;-74
2021/11/28 08:56:08;;;;;;;0.52;0.25;;;3.70;99.90;;;;;;5072920;28;20035;-74
2021/11/28 08:58:33;;;;;;;0.70;0.45;;;3.80;99.90;;;;;;5067317;28;20029;-73
2021/11/28 09:00:59;;;;;;;1.15;0.57;;;3.80;99.90;;;;;;5075558;28;20385;-74
2021/11/28 09:03:25;;;;;;;1.42;0.38;;;3.80;99.90;;;;;;5087575;28;20031;-74
2021/11/28 09:05:51;;;;;;;1.25;0.50;;;3.70;99.90;;;;;;5069298;28;20441;-73
2021/11/28 09:08:17;;;;;;;0.45;0.17;;;3.90;99.90;;;;;;5067868;28;20039;-73
2021/11/28 09:10:44;;;;;;;1.75;0.60;;;4.00;99.90;;;;;;5067725;28;20027;-74
2021/11/28 09:13:10;;;;;;;1.73;0.75;;;4.00;99.90;;;;;;5047708;28;20103;-74
2021/11/28 09:15:37;;;;;;;4.28;1.75;;;4.20;99.90;;;;;;5063630;28;20032;-73
2021/11/28 09:18:25;;;;;;;5.72;2.30;;;4.40;99.90;;;;;;5067114;28;20491;-74
2021/11/28 09:20:57;;;;;;;17.17;7.30;;;4.60;99.90;;;;;;5067100;28;20032;-73
2021/11/28 09:26:08;;;;;;;1.08;0.60;;;4.60;99.90;;;;;;5071715;28;20066;-73
2021/11/28 09:28:36;;;;;;;16.83;7.72;;;4.40;99.90;;;;;;5066621;28;20029;-73
2021/11/28 09:31:02;;;;;;;7.72;3.80;;;4.60;99.90;;;;;;5067013;28;20048;-73
2021/11/28 09:33:28;;;;;;;3.40;1.58;;;4.70;99.90;;;;;;5066967;28;20067;-74
2021/11/28 09:35:54;;;;;;;5.88;2.70;;;4.80;99.90;;;;;;5071288;28;20059;-73
2021/11/28 09:38:19;;;;;;;4.35;1.88;;;4.80;99.90;;;;;;5065347;28;20324;-73
2021/11/28 09:40:46;;;;;;;2.17;1.08;;;5.00;99.90;;;;;;5051564;28;20079;-74
2021/11/28 09:43:14;;;;;;;4.15;2.05;;;5.00;99.90;;;;;;5046334;28;20020;-74
2021/11/28 09:45:42;;;;;;;3.13;1.70;;;5.20;99.90;;;;;;5052719;28;20115;-74
2021/11/28 09:48:10;;;;;;;3.17;2.05;;;5.20;99.90;;;;;;5057845;28;20042;-73
2021/11/28 09:50:36;;;;;;;7.95;4.65;;;5.10;99.90;;;;;;5072822;28;20051;-73
2021/11/28 09:53:03;;;;;;;2.25;1.15;;;5.20;99.90;;;;;;5072796;28;20071;-73
2021/11/28 09:55:30;;;;;;;2.30;1.42;;;5.10;99.90;;;;;;5063909;28;20032;-72
2021/11/28 09:57:57;;;;;;;15.63;13.70;;;5.10;99.90;;;;;;5083839;28;20028;-72
2021/11/28 10:00:23;;;;;;;3.88;1.70;;;5.10;99.90;;;;;;5086290;28;20646;-73
2021/11/28 10:02:49;;;;;;;5.88;1.75;;;5.00;99.90;;;;;;5086057;28;20547;-72
2021/11/28 10:05:15;;;;;;;2.03;0.60;;;4.90;99.90;;;;;;5074602;28;20032;-73
2021/11/28 10:07:44;;;;;;;1.67;0.70;;;4.70;99.90;;;;;;5080570;28;20044;-74
2021/11/28 10:10:11;;;;;;;0.75;0.35;;;4.60;99.90;;;;;;5056950;28;20072;-73
2021/11/28 10:12:42;;;;;;;1.38;0.55;;;4.60;99.90;;;;;;5045049;28;20334;-72
2021/11/28 10:15:12;;;;;;;0.60;0.30;;;4.60;99.90;;;;;;5046589;28;20044;-73
2021/11/28 10:17:39;;;;;;;2.40;0.60;;;4.70;99.90;;;;;;5069053;28;20467;-73
2021/11/28 10:20:10;;;;;;;0.93;0.30;;;4.50;99.90;;;;;;5086364;28;20027;-73
2021/11/28 10:22:36;;;;;;;1.55;0.50;;;4.60;99.90;;;;;;5085753;28;20024;-73
2021/11/28 10:25:15;;;;;;;0.70;0.40;;;4.60;99.90;;;;;;5081846;28;20017;-73
2021/11/28 10:27:49;;;;;;;0.82;0.30;;;4.50;99.90;;;;;;5074421;28;20024;-74
2021/11/28 10:30:28;;;;;;;1.42;0.70;;;4.50;99.90;;;;;;5067167;28;20027;-74
2021/11/28 10:32:55;;;;;;;1.80;0.50;;;4.40;99.90;;;;;;5065069;28;20109;-74
2021/11/28 10:35:22;;;;;;;1.30;0.50;;;4.40;99.90;;;;;;5065468;28;20027;-74
2021/11/28 10:37:50;;;;;;;1.27;0.50;;;4.30;99.90;;;;;;5071974;28;20534;-74
2021/11/28 10:40:26;;;;;;;0.88;0.50;;;4.30;99.90;;;;;;5071647;28;20520;-73
2021/11/28 10:43:14;;;;;;;0.70;0.30;;;4.20;99.90;;;;;;5065409;28;20106;-73
2021/11/28 10:45:47;;;;;;;2.00;1.10;;;4.20;99.90;;;;;;5065222;28;20619;-73
2021/11/28 10:48:14;;;;;;;0.85;0.50;;;3.90;99.90;;;;;;5072413;28;20374;-74
2021/11/28 10:50:41;;;;;;;0.85;0.47;;;3.90;99.90;;;;;;5071149;28;20036;-73
2021/11/28 10:53:16;;;;;;;1.38;0.75;;;3.90;99.90;;;;;;5065436;28;20180;-73
2021/11/28 10:55:53;;;;;;;1.45;0.38;;;4.00;99.90;;;;;;5065092;28;20036;-73
2021/11/28 10:58:27;;;;;;;2.83;0.70;;;4.00;99.90;;;;;;5070244;28;20031;-73
2021/11/28 11:00:52;;;;;;;1.55;0.80;;;4.00;99.90;;;;;;5072205;28;20108;-73
2021/11/28 11:03:22;;;;;;;1.80;0.50;;;4.10;99.90;;;;;;5065071;28;20096;-73
2021/11/28 11:05:55;;;;;;;3.63;0.57;;;4.20;99.90;;;;;;5063943;28;20048;-73
2021/11/28 11:08:27;;;;;;;2.47;0.90;;;4.20;99.90;;;;;;5064016;28;20016;-73
2021/11/28 11:11:09;;;;;;;1.40;0.65;;;4.10;99.90;;;;;;5063307;28;20020;-73
2021/11/28 11:13:58;;;;;;;2.22;0.73;;;3.90;99.90;;;;;;5064050;28;20048;-73
2021/11/28 11:16:45;;;;;;;1.20;0.60;;;3.80;99.90;;;;;;5064887;28;20032;-74
2021/11/28 11:19:39;;;;;;;1.85;0.50;;;3.80;99.90;;;;;;5071153;28;20467;-73
2021/11/28 11:22:24;;;;;;;0.88;0.35;;;3.70;99.90;;;;;;5069665;28;20498;-73
2021/11/28 11:24:58;;;;;;;0.30;0.22;;;3.70;99.90;;;;;;5064402;28;20047;-73
2021/11/28 11:27:30;;;;;;;0.65;0.43;;;3.60;99.90;;;;;;5064515;28;20029;-74
2021/11/28 11:30:00;;;;;;;1.38;0.50;;;3.50;99.90;;;;;;5074721;28;20034;-74
2021/11/28 11:32:42;;;;;;;1.58;0.55;;;3.60;99.90;;;;;;5069319;28;20032;-76
2021/11/28 11:35:13;;;;;;;1.15;0.43;;;3.40;99.90;;;;;;5065155;28;20153;-75
2021/11/28 11:37:39;;;;;;;1.75;0.80;;;3.40;99.90;;;;;;5064292;28;20055;-75
2021/11/28 11:40:10;;;;;;;1.65;0.80;;;3.20;99.90;;;;;;5072682;28;20466;-75
2021/11/28 11:42:40;;;;;;;1.55;0.65;;;3.10;99.90;;;;;;5070234;28;20111;-75
2021/11/28 11:45:08;;;;;;;2.08;0.82;;;3.30;99.90;;;;;;5063840;28;20506;-75
2021/11/28 11:47:34;;;;;;;3.00;1.30;;;3.30;99.90;;;;;;5064394;28;20052;-75
2021/11/28 11:50:00;;;;;;;1.48;0.70;;;3.20;99.90;;;;;;5068768;28;20070;-75
2021/11/28 11:52:27;;;;;;;1.80;0.90;;;3.20;99.90;;;;;;5075306;28;20033;-75
2021/11/28 11:54:54;;;;;;;1.42;0.50;;;3.10;99.90;;;;;;5061166;28;20570;-76
2021/11/28 11:57:38;;;;;;;1.90;0.60;;;2.90;99.90;;;;;;5063160;28;20036;-76
2021/11/28 12:00:09;;;;;;;2.00;0.40;;;2.80;99.90;;;;;;5068903;28;20115;-77
2021/11/28 12:02:42;;;;;;;0.90;0.52;;;2.70;99.90;;;;;;5059762;28;20115;-76
2021/11/28 12:05:26;;;;;;;0.88;0.30;;;2.60;99.90;;;;;;5064863;28;20111;-76
2021/11/28 12:07:54;;;;;;;1.33;0.50;;;2.70;99.90;;;;;;5044124;28;20037;-76
2021/11/28 12:10:39;;;;;;;12.63;7.30;;;2.90;99.90;;;;;;5048845;28;20049;-78
2021/11/28 12:13:14;;;;;;;1.60;0.80;;;2.80;99.90;;;;;;5064852;28;20522;-76
2021/11/28 12:15:50;;;;;;;1.60;0.90;;;2.70;99.90;;;;;;5063928;28;20020;-77
2021/11/28 12:18:33;;;;;;;3.53;1.65;;;2.90;99.90;;;;;;5044130;28;20154;-78
2021/11/28 12:21:02;;;;;;;2.05;0.82;;;2.70;99.90;;;;;;5063720;28;20085;-75
2021/11/28 12:23:45;;;;;;;1.52;0.70;;;2.70;99.90;;;;;;5084343;28;20036;-76
2021/11/28 12:26:26;;;;;;;0.95;0.40;;;2.60;99.90;;;;;;5076609;28;20024;-77
2021/11/28 12:28:56;;;;;;;1.13;0.45;;;2.30;99.90;;;;;;5054974;28;20104;-76
2021/11/28 12:31:38;;;;;;;1.50;0.55;;;2.20;99.90;;;;;;5058751;28;20028;-75
2021/11/28 12:34:09;;;;;;;1.20;0.47;;;2.20;99.90;;;;;;5067196;28;20696;-74
2021/11/28 12:36:35;;;;;;;0.40;0.15;;;2.50;99.90;;;;;;5057934;28;20086;-76
2021/11/28 12:39:07;;;;;;;1.10;0.50;;;2.50;99.90;;;;;;5048174;28;20025;-77
2021/11/28 12:42:03;;;;;;;2.55;0.80;;;2.80;99.90;;;;;;5049624;28;20028;-75
2021/11/28 12:44:37;;;;;;;0.77;0.30;;;2.80;99.90;;;;;;5044698;28;20594;-78
2021/11/28 12:47:09;;;;;;;0.32;0.15;;;2.80;99.90;;;;;;5065902;28;20111;-76
2021/11/28 12:49:51;;;;;;;0.88;0.40;;;2.90;99.90;;;;;;5081248;28;20024;-75
2021/11/28 12:52:23;;;;;;;0.70;0.30;;;3.20;99.90;;;;;;5070523;28;20103;-75
2021/11/28 12:55:17;;;;;;;0.25;0.20;;;3.20;99.90;;;;;;5066853;28;20040;-75
2021/11/28 12:57:44;;;;;;;2.00;0.90;;;3.40;99.90;;;;;;5075750;28;20477;-75
2021/11/28 13:00:12;;;;;;;0.93;0.47;;;3.70;99.90;;;;;;5080921;28;20558;-75
2021/11/28 13:02:41;;;;;;;13.55;8.02;;;3.70;99.90;;;;;;5084693;28;20107;-75
2021/11/28 13:05:29;;;;;;;1.20;0.80;;;3.80;99.90;;;;;;5079657;28;20107;-75
2021/11/28 13:08:00;;;;;;;1.00;0.45;;;3.80;99.90;;;;;;5079498;28;20025;-75